EGLC/LCY METAR and TAF weather

Enter ICAO airport designator
Station Type Date Time Source
EGLC METAR 2019/06/26 15:50 UTC NOAA

EGLC 261550Z AUTO 06011KT 9999 BKN022 20/15 Q1028


Station Type Date Time Source
EGLC Decoded METAR 2019/06/26 15:50 UTC NOAA

London City Airport, United Kingdom (EGLC) 51-30N 000-30W
Jun 26, 2019 - 11:50 AM EDT / 2019.06.26 1550 UTC
Wind: from the ENE (060 degrees) at 13 MPH (11 KT):0
Visibility: greater than 7 mile(s):0
Sky conditions: mostly cloudy
Temperature: 68 F (20 C)
Dew Point: 59 F (15 C)
Relative Humidity: 72%
Pressure (altimeter): 30.36 in. Hg (1028 hPa)
ob: EGLC 261550Z AUTO 06011KT 9999 BKN022 20/15 Q1028
cycle: 16

Station Type Date Time Source
EGLC TAF 2018/10/15 21:30 UTC NOAA

TAF EGLC 152119Z 1521/1621 CNL

Example: see airport list